sensor_id;sensor_type;location;lat;lon;timestamp;pressure;altitude;pressure_sealevel;temperature;humidity
37610;BME280;23457;51.966;8.230;2023-08-24T00:00:43;101166.34;;;19.44;100.00
37610;BME280;23457;51.966;8.230;2023-08-24T00:03:10;101161.94;;;19.49;100.00
37610;BME280;23457;51.966;8.230;2023-08-24T00:05:37;101164.56;;;19.49;100.00
37610;BME280;23457;51.966;8.230;2023-08-24T00:08:06;101151.47;;;19.39;100.00
37610;BME280;23457;51.966;8.230;2023-08-24T00:10:35;101155.16;;;19.25;100.00
37610;BME280;23457;51.966;8.230;2023-08-24T00:13:02;101143.75;;;19.25;100.00
37610;BME280;23457;51.966;8.230;2023-08-24T00:15:29;101149.03;;;19.25;100.00
37610;BME280;23457;51.966;8.230;2023-08-24T00:17:56;101149.97;;;19.19;100.00
37610;BME280;23457;51.966;8.230;2023-08-24T00:20:23;101147.38;;;19.15;100.00
37610;BME280;23457;51.966;8.230;2023-08-24T00:22:50;101148.34;;;19.11;100.00
37610;BME280;23457;51.966;8.230;2023-08-24T00:25:16;101149.41;;;18.94;100.00
37610;BME280;23457;51.966;8.230;2023-08-24T00:27:44;101144.91;;;19.01;100.00
37610;BME280;23457;51.966;8.230;2023-08-24T00:30:11;101135.19;;;19.08;100.00
37610;BME280;23457;51.966;8.230;2023-08-24T00:32:38;101142.13;;;19.15;100.00
37610;BME280;23457;51.966;8.230;2023-08-24T00:35:06;101137.84;;;19.05;100.00
37610;BME280;23457;51.966;8.230;2023-08-24T00:37:33;101137.13;;;18.90;100.00
37610;BME280;23457;51.966;8.230;2023-08-24T00:40:02;101139.72;;;18.95;100.00
37610;BME280;23457;51.966;8.230;2023-08-24T00:42:31;101136.09;;;19.04;100.00
37610;BME280;23457;51.966;8.230;2023-08-24T00:44:58;101133.56;;;18.98;100.00
37610;BME280;23457;51.966;8.230;2023-08-24T00:47:25;101130.34;;;18.71;100.00
37610;BME280;23457;51.966;8.230;2023-08-24T00:49:52;101132.16;;;18.63;100.00
37610;BME280;23457;51.966;8.230;2023-08-24T00:52:19;101138.34;;;18.57;100.00
37610;BME280;23457;51.966;8.230;2023-08-24T00:54:47;101141.81;;;18.63;100.00
37610;BME280;23457;51.966;8.230;2023-08-24T00:57:14;101142.66;;;18.69;100.00
37610;BME280;23457;51.966;8.230;2023-08-24T00:59:42;101141.00;;;18.60;100.00
37610;BME280;23457;51.966;8.230;2023-08-24T01:02:10;101136.66;;;18.50;100.00
37610;BME280;23457;51.966;8.230;2023-08-24T01:04:41;101137.59;;;18.48;100.00
37610;BME280;23457;51.966;8.230;2023-08-24T01:07:08;101145.41;;;18.54;100.00
37610;BME280;23457;51.966;8.230;2023-08-24T01:09:36;101146.22;;;18.62;100.00
37610;BME280;23457;51.966;8.230;2023-08-24T01:12:23;101150.66;;;18.60;100.00
37610;BME280;23457;51.966;8.230;2023-08-24T01:15:09;101145.38;;;18.62;100.00
37610;BME280;23457;51.966;8.230;2023-08-24T01:17:42;101139.34;;;18.46;100.00
37610;BME280;23457;51.966;8.230;2023-08-24T01:20:10;101136.75;;;18.40;100.00
37610;BME280;23457;51.966;8.230;2023-08-24T01:25:38;101133.34;;;18.30;100.00
37610;BME280;23457;51.966;8.230;2023-08-24T01:28:08;101125.50;;;18.25;100.00
37610;BME280;23457;51.966;8.230;2023-08-24T01:30:36;101122.03;;;18.23;100.00
37610;BME280;23457;51.966;8.230;2023-08-24T01:33:04;101114.13;;;18.23;100.00
37610;BME280;23457;51.966;8.230;2023-08-24T01:35:31;101109.78;;;18.19;100.00
37610;BME280;23457;51.966;8.230;2023-08-24T01:37:59;101107.13;;;18.21;100.00
37610;BME280;23457;51.966;8.230;2023-08-24T01:43:18;101092.25;;;18.15;100.00
37610;BME280;23457;51.966;8.230;2023-08-24T01:46:07;101090.59;;;18.05;100.00
37610;BME280;23457;51.966;8.230;2023-08-24T01:48:35;101083.59;;;18.04;100.00
37610;BME280;23457;51.966;8.230;2023-08-24T01:51:02;101089.75;;;18.02;100.00
37610;BME280;23457;51.966;8.230;2023-08-24T01:53:34;101094.13;;;18.01;100.00
37610;BME280;23457;51.966;8.230;2023-08-24T01:56:04;101106.41;;;17.99;100.00
37610;BME280;23457;51.966;8.230;2023-08-24T01:58:33;101112.50;;;18.07;100.00
37610;BME280;23457;51.966;8.230;2023-08-24T02:01:00;101109.00;;;18.10;100.00
37610;BME280;23457;51.966;8.230;2023-08-24T02:03:27;101103.66;;;18.14;100.00
37610;BME280;23457;51.966;8.230;2023-08-24T02:05:54;101108.03;;;18.15;100.00
37610;BME280;23457;51.966;8.230;2023-08-24T02:08:21;101094.97;;;18.11;100.00
37610;BME280;23457;51.966;8.230;2023-08-24T02:10:48;101089.72;;;18.05;100.00
37610;BME280;23457;51.966;8.230;2023-08-24T02:13:15;101085.34;;;18.05;100.00
37610;BME280;23457;51.966;8.230;2023-08-24T02:15:42;101094.09;;;18.07;100.00
37610;BME280;23457;51.966;8.230;2023-08-24T02:18:08;101094.91;;;18.14;100.00
37610;BME280;23457;51.966;8.230;2023-08-24T02:20:36;101095.78;;;18.14;100.00
37610;BME280;23457;51.966;8.230;2023-08-24T02:23:04;101093.16;;;18.13;100.00
37610;BME280;23457;51.966;8.230;2023-08-24T02:25:31;101083.50;;;18.16;100.00
37610;BME280;23457;51.966;8.230;2023-08-24T02:27:58;101086.06;;;18.22;100.00
37610;BME280;23457;51.966;8.230;2023-08-24T02:30:25;101081.66;;;18.24;100.00
37610;BME280;23457;51.966;8.230;2023-08-24T02:32:52;101076.44;;;18.23;100.00
37610;BME280;23457;51.966;8.230;2023-08-24T02:35:19;101071.25;;;18.12;100.00
37610;BME280;23457;51.966;8.230;2023-08-24T02:37:46;101065.16;;;18.09;100.00
37610;BME280;23457;51.966;8.230;2023-08-24T02:40:13;101059.03;;;18.05;100.00
37610;BME280;23457;51.966;8.230;2023-08-24T02:42:39;101062.63;;;17.98;100.00
37610;BME280;23457;51.966;8.230;2023-08-24T02:45:06;101060.00;;;17.97;100.00
37610;BME280;23457;51.966;8.230;2023-08-24T02:47:33;101060.81;;;18.03;100.00
37610;BME280;23457;51.966;8.230;2023-08-24T02:50:00;101066.94;;;18.05;100.00
37610;BME280;23457;51.966;8.230;2023-08-24T02:52:26;101072.28;;;17.98;100.00
37610;BME280;23457;51.966;8.230;2023-08-24T02:54:53;101058.25;;;17.96;100.00
37610;BME280;23457;51.966;8.230;2023-08-24T02:57:20;101060.06;;;17.90;100.00
37610;BME280;23457;51.966;8.230;2023-08-24T02:59:46;101060.91;;;17.94;100.00
37610;BME280;23457;51.966;8.230;2023-08-24T03:02:13;101055.56;;;18.00;100.00
37610;BME280;23457;51.966;8.230;2023-08-24T03:04:40;101061.78;;;17.95;100.00
37610;BME280;23457;51.966;8.230;2023-08-24T03:07:07;101057.41;;;17.92;100.00
37610;BME280;23457;51.966;8.230;2023-08-24T03:09:36;101053.88;;;17.98;100.00
37610;BME280;23457;51.966;8.230;2023-08-24T03:12:03;101051.25;;;17.98;100.00
37610;BME280;23457;51.966;8.230;2023-08-24T03:14:30;101059.13;;;17.96;100.00
37610;BME280;23457;51.966;8.230;2023-08-24T03:16:59;101069.59;;;17.99;100.00
37610;BME280;23457;51.966;8.230;2023-08-24T03:19:25;101074.84;;;18.02;100.00
37610;BME280;23457;51.966;8.230;2023-08-24T03:21:52;101073.06;;;18.07;100.00
37610;BME280;23457;51.966;8.230;2023-08-24T03:24:19;101074.75;;;18.11;100.00
37610;BME280;23457;51.966;8.230;2023-08-24T03:26:46;101087.91;;;18.13;100.00
37610;BME280;23457;51.966;8.230;2023-08-24T03:29:14;101082.72;;;18.05;100.00
37610;BME280;23457;51.966;8.230;2023-08-24T03:31:40;101075.75;;;18.00;100.00
37610;BME280;23457;51.966;8.230;2023-08-24T03:34:07;101074.84;;;18.01;100.00
37610;BME280;23457;51.966;8.230;2023-08-24T03:36:34;101074.88;;;17.99;100.00
37610;BME280;23457;51.966;8.230;2023-08-24T03:39:01;101073.97;;;18.00;100.00
37610;BME280;23457;51.966;8.230;2023-08-24T03:41:29;101081.06;;;17.94;100.00
37610;BME280;23457;51.966;8.230;2023-08-24T03:43:57;101067.84;;;18.01;100.00
37610;BME280;23457;51.966;8.230;2023-08-24T03:46:24;101069.59;;;18.02;100.00
37610;BME280;23457;51.966;8.230;2023-08-24T03:48:52;101095.09;;;17.96;100.00
37610;BME280;23457;51.966;8.230;2023-08-24T03:51:18;101091.56;;;17.95;100.00
37610;BME280;23457;51.966;8.230;2023-08-24T03:53:46;101084.50;;;17.99;100.00
37610;BME280;23457;51.966;8.230;2023-08-24T03:56:13;101072.31;;;17.95;100.00
37610;BME280;23457;51.966;8.230;2023-08-24T03:58:40;101074.06;;;17.93;100.00
37610;BME280;23457;51.966;8.230;2023-08-24T04:01:10;101068.84;;;17.88;100.00
37610;BME280;23457;51.966;8.230;2023-08-24T04:03:38;101071.44;;;17.93;100.00
37610;BME280;23457;51.966;8.230;2023-08-24T04:06:06;101070.53;;;17.95;100.00
37610;BME280;23457;51.966;8.230;2023-08-24T04:08:34;101065.31;;;17.90;100.00
37610;BME280;23457;51.966;8.230;2023-08-24T04:11:01;101067.91;;;17.95;100.00
37610;BME280;23457;51.966;8.230;2023-08-24T04:13:28;101057.44;;;17.87;100.00
37610;BME280;23457;51.966;8.230;2023-08-24T04:15:54;101064.50;;;17.84;100.00
37610;BME280;23457;51.966;8.230;2023-08-24T04:18:21;101076.78;;;17.82;100.00
37610;BME280;23457;51.966;8.230;2023-08-24T04:20:48;101081.09;;;17.89;100.00
37610;BME280;23457;51.966;8.230;2023-08-24T04:23:15;101074.09;;;17.89;100.00
37610;BME280;23457;51.966;8.230;2023-08-24T04:25:43;101083.72;;;17.89;100.00
37610;BME280;23457;51.966;8.230;2023-08-24T04:28:09;101083.72;;;17.89;100.00
37610;BME280;23457;51.966;8.230;2023-08-24T04:30:36;101090.91;;;17.70;100.00
37610;BME280;23457;51.966;8.230;2023-08-24T04:33:03;101100.56;;;17.64;100.00
37610;BME280;23457;51.966;8.230;2023-08-24T04:35:34;101092.66;;;17.67;100.00
37610;BME280;23457;51.966;8.230;2023-08-24T04:38:01;101104.88;;;17.74;100.00
37610;BME280;23457;51.966;8.230;2023-08-24T04:40:27;101097.84;;;17.76;100.00
37610;BME280;23457;51.966;8.230;2023-08-24T04:42:54;101099.59;;;17.80;100.00
37610;BME280;23457;51.966;8.230;2023-08-24T04:45:21;101101.41;;;17.72;100.00
37610;BME280;23457;51.966;8.230;2023-08-24T04:47:48;101104.91;;;17.69;100.00
37610;BME280;23457;51.966;8.230;2023-08-24T04:50:15;101111.94;;;17.69;100.00
37610;BME280;23457;51.966;8.230;2023-08-24T04:52:42;101114.59;;;17.64;100.00
37610;BME280;23457;51.966;8.230;2023-08-24T04:55:09;101120.75;;;17.55;100.00
37610;BME280;23457;51.966;8.230;2023-08-24T04:57:37;101122.44;;;17.69;100.00
37610;BME280;23457;51.966;8.230;2023-08-24T05:00:04;101119.81;;;17.69;100.00
37610;BME280;23457;51.966;8.230;2023-08-24T05:02:32;101109.25;;;17.75;100.00
37610;BME280;23457;51.966;8.230;2023-08-24T05:04:58;101105.72;;;17.77;100.00
37610;BME280;23457;51.966;8.230;2023-08-24T05:07:25;101104.03;;;17.69;100.00
37610;BME280;23457;51.966;8.230;2023-08-24T05:09:53;101102.22;;;17.80;100.00
37610;BME280;23457;51.966;8.230;2023-08-24T05:12:20;101089.06;;;17.77;100.00
37610;BME280;23457;51.966;8.230;2023-08-24T05:14:47;101083.81;;;17.78;100.00
37610;BME280;23457;51.966;8.230;2023-08-24T05:17:13;101071.56;;;17.77;100.00
37610;BME280;23457;51.966;8.230;2023-08-24T05:19:40;101062.72;;;17.86;100.00
37610;BME280;23457;51.966;8.230;2023-08-24T05:22:07;101043.53;;;17.75;100.00
37610;BME280;23457;51.966;8.230;2023-08-24T05:24:33;101046.00;;;17.93;100.00
37610;BME280;23457;51.966;8.230;2023-08-24T05:27:00;101038.06;;;17.99;100.00
37610;BME280;23457;51.966;8.230;2023-08-24T05:29:27;101022.31;;;17.96;100.00
37610;BME280;23457;51.966;8.230;2023-08-24T05:31:53;101027.50;;;18.02;100.00
37610;BME280;23457;51.966;8.230;2023-08-24T05:34:20;101030.13;;;18.05;100.00
37610;BME280;23457;51.966;8.230;2023-08-24T05:36:47;101035.28;;;18.16;100.00
37610;BME280;23457;51.966;8.230;2023-08-24T05:39:13;101046.66;;;18.16;100.00
37610;BME280;23457;51.966;8.230;2023-08-24T05:41:41;101042.13;;;18.32;100.00
37610;BME280;23457;51.966;8.230;2023-08-24T05:44:08;101036.91;;;18.27;100.00
37610;BME280;23457;51.966;8.230;2023-08-24T05:46:35;101038.72;;;18.22;100.00
37610;BME280;23457;51.966;8.230;2023-08-24T05:49:02;101034.22;;;18.32;100.00
37610;BME280;23457;51.966;8.230;2023-08-24T05:51:30;101027.13;;;18.39;100.00
37610;BME280;23457;51.966;8.230;2023-08-24T05:53:56;101035.97;;;18.35;100.00
37610;BME280;23457;51.966;8.230;2023-08-24T05:56:25;101030.63;;;18.41;100.00
37610;BME280;23457;51.966;8.230;2023-08-24T05:58:52;101028.00;;;18.38;100.00
37610;BME280;23457;51.966;8.230;2023-08-24T06:01:19;101032.47;;;18.31;100.00
37610;BME280;23457;51.966;8.230;2023-08-24T06:03:49;101034.97;;;18.45;100.00
37610;BME280;23457;51.966;8.230;2023-08-24T06:06:17;101026.19;;;18.47;100.00
37610;BME280;23457;51.966;8.230;2023-08-24T06:08:44;101027.31;;;18.23;100.00
37610;BME280;23457;51.966;8.230;2023-08-24T06:11:11;101030.56;;;18.45;100.00
37610;BME280;23457;51.966;8.230;2023-08-24T06:13:37;101027.13;;;18.39;100.00
37610;BME280;23457;51.966;8.230;2023-08-24T06:16:04;101034.97;;;18.46;100.00
37610;BME280;23457;51.966;8.230;2023-08-24T06:18:31;101029.69;;;18.48;100.00
37610;BME280;23457;51.966;8.230;2023-08-24T06:20:57;101018.19;;;18.55;100.00
37610;BME280;23457;51.966;8.230;2023-08-24T06:23:24;101013.00;;;18.49;100.00
37610;BME280;23457;51.966;8.230;2023-08-24T06:25:50;101009.44;;;18.50;100.00
37610;BME280;23457;51.966;8.230;2023-08-24T06:28:17;101011.25;;;18.48;100.00
37610;BME280;23457;51.966;8.230;2023-08-24T06:30:44;101008.56;;;18.49;100.00
37610;BME280;23457;51.966;8.230;2023-08-24T06:33:12;101015.44;;;18.66;100.00
37610;BME280;23457;51.966;8.230;2023-08-24T06:35:38;101010.06;;;18.75;100.00
37610;BME280;23457;51.966;8.230;2023-08-24T06:38:05;101014.41;;;18.77;100.00
37610;BME280;23457;51.966;8.230;2023-08-24T06:40:32;101007.25;;;18.88;100.00
37610;BME280;23457;51.966;8.230;2023-08-24T06:42:59;101004.66;;;18.85;100.00
37610;BME280;23457;51.966;8.230;2023-08-24T06:45:25;101006.41;;;18.86;100.00
37610;BME280;23457;51.966;8.230;2023-08-24T06:47:52;100991.41;;;18.90;100.00
37610;BME280;23457;51.966;8.230;2023-08-24T06:50:19;100983.44;;;18.98;100.00
37610;BME280;23457;51.966;8.230;2023-08-24T06:52:46;100981.69;;;18.96;100.00
37610;BME280;23457;51.966;8.230;2023-08-24T06:55:13;100988.63;;;19.01;100.00
37610;BME280;23457;51.966;8.230;2023-08-24T06:57:39;100975.38;;;19.07;100.00
37610;BME280;23457;51.966;8.230;2023-08-24T07:00:07;100985.00;;;19.09;100.00
37610;BME280;23457;51.966;8.230;2023-08-24T07:02:36;100978.69;;;19.21;100.00
37610;BME280;23457;51.966;8.230;2023-08-24T07:05:03;100980.47;;;19.19;100.00
37610;BME280;23457;51.966;8.230;2023-08-24T07:07:37;100981.34;;;19.19;100.00
37610;BME280;23457;51.966;8.230;2023-08-24T07:10:04;100971.44;;;19.35;100.00
37610;BME280;23457;51.966;8.230;2023-08-24T07:12:32;100969.78;;;19.28;100.00
37610;BME280;23457;51.966;8.230;2023-08-24T07:14:59;100961.03;;;19.26;100.00
37610;BME280;23457;51.966;8.230;2023-08-24T07:17:26;100956.44;;;19.39;100.00
37610;BME280;23457;51.966;8.230;2023-08-24T07:19:52;100950.19;;;19.44;100.00
37610;BME280;23457;51.966;8.230;2023-08-24T07:22:19;100937.75;;;19.55;100.00
37610;BME280;23457;51.966;8.230;2023-08-24T07:24:46;100948.91;;;19.71;100.00
37610;BME280;23457;51.966;8.230;2023-08-24T07:27:13;100949.59;;;19.81;100.00
37610;BME280;23457;51.966;8.230;2023-08-24T07:29:40;100949.50;;;19.87;100.00
37610;BME280;23457;51.966;8.230;2023-08-24T07:32:07;100947.56;;;19.95;100.00
37610;BME280;23457;51.966;8.230;2023-08-24T07:34:34;100947.38;;;20.04;100.00
37610;BME280;23457;51.966;8.230;2023-08-24T07:37:00;100943.63;;;20.16;100.00
37610;BME280;23457;51.966;8.230;2023-08-24T07:39:27;100939.44;;;20.07;100.00
37610;BME280;23457;51.966;8.230;2023-08-24T07:41:54;100938.19;;;20.26;100.00
37610;BME280;23457;51.966;8.230;2023-08-24T07:44:21;100936.28;;;20.31;100.00
37610;BME280;23457;51.966;8.230;2023-08-24T07:46:48;100937.97;;;20.38;100.00
37610;BME280;23457;51.966;8.230;2023-08-24T07:49:14;100934.06;;;20.55;100.00
37610;BME280;23457;51.966;8.230;2023-08-24T07:51:41;100948.78;;;20.66;100.00
37610;BME280;23457;51.966;8.230;2023-08-24T07:54:10;100938.03;;;20.76;100.00
37610;BME280;23457;51.966;8.230;2023-08-24T07:56:37;100945.78;;;20.83;100.00
37610;BME280;23457;51.966;8.230;2023-08-24T07:59:03;100956.66;;;21.08;100.00
37610;BME280;23457;51.966;8.230;2023-08-24T08:01:30;100950.56;;;21.04;100.00
37610;BME280;23457;51.966;8.230;2023-08-24T08:03:57;100959.22;;;21.11;100.00
37610;BME280;23457;51.966;8.230;2023-08-24T08:06:24;100961.00;;;21.10;100.00
37610;BME280;23457;51.966;8.230;2023-08-24T08:08:52;100961.22;;;21.40;100.00
37610;BME280;23457;51.966;8.230;2023-08-24T08:11:18;100957.47;;;21.49;98.52
37610;BME280;23457;51.966;8.230;2023-08-24T08:13:45;100943.91;;;21.61;98.10
37610;BME280;23457;51.966;8.230;2023-08-24T08:16:12;100935.88;;;21.65;99.19
37610;BME280;23457;51.966;8.230;2023-08-24T08:18:39;100934.94;;;21.66;98.67
37610;BME280;23457;51.966;8.230;2023-08-24T08:21:16;100933.53;;;21.87;97.52
37610;BME280;23457;51.966;8.230;2023-08-24T08:23:48;100939.31;;;22.03;96.37
37610;BME280;23457;51.966;8.230;2023-08-24T08:26:15;100930.19;;;22.13;96.31
37610;BME280;23457;51.966;8.230;2023-08-24T08:28:42;100929.75;;;22.28;95.29
37610;BME280;23457;51.966;8.230;2023-08-24T08:31:09;100929.66;;;22.31;97.76
37610;BME280;23457;51.966;8.230;2023-08-24T08:33:36;100939.44;;;22.59;95.53
37610;BME280;23457;51.966;8.230;2023-08-24T08:36:03;100947.22;;;22.65;93.16
37610;BME280;23457;51.966;8.230;2023-08-24T08:38:29;100947.78;;;22.76;91.99
37610;BME280;23457;51.966;8.230;2023-08-24T08:41:02;100947.72;;;22.79;91.96
37610;BME280;23457;51.966;8.230;2023-08-24T08:43:29;100950.41;;;22.77;93.68
37610;BME280;23457;51.966;8.230;2023-08-24T08:45:59;100936.84;;;22.86;93.29
37610;BME280;23457;51.966;8.230;2023-08-24T08:48:28;100941.03;;;22.94;93.99
37610;BME280;23457;51.966;8.230;2023-08-24T08:50:57;100931.78;;;23.07;93.18
37610;BME280;23457;51.966;8.230;2023-08-24T08:53:24;100939.34;;;23.19;90.02
37610;BME280;23457;51.966;8.230;2023-08-24T08:55:51;100931.09;;;23.28;92.00
37610;BME280;23457;51.966;8.230;2023-08-24T08:58:20;100906.44;;;23.52;88.95
37610;BME280;23457;51.966;8.230;2023-08-24T09:00:48;100904.00;;;23.71;90.58
37610;BME280;23457;51.966;8.230;2023-08-24T09:03:17;100904.75;;;23.75;87.81
37610;BME280;23457;51.966;8.230;2023-08-24T09:05:45;100895.72;;;23.80;89.21
37610;BME280;23457;51.966;8.230;2023-08-24T09:08:18;100888.09;;;23.94;85.83
37610;BME280;23457;51.966;8.230;2023-08-24T09:10:45;100882.19;;;24.11;84.97
37610;BME280;23457;51.966;8.230;2023-08-24T09:13:12;100884.03;;;24.09;86.45
37610;BME280;23457;51.966;8.230;2023-08-24T09:15:39;100884.16;;;24.31;88.46
37610;BME280;23457;51.966;8.230;2023-08-24T09:18:06;100875.00;;;24.38;81.69
37610;BME280;23457;51.966;8.230;2023-08-24T09:20:34;100861.09;;;24.55;80.74
37610;BME280;23457;51.966;8.230;2023-08-24T09:23:02;100863.25;;;24.67;82.51
37610;BME280;23457;51.966;8.230;2023-08-24T09:25:44;100862.69;;;24.81;79.52
37610;BME280;23457;51.966;8.230;2023-08-24T09:28:22;100871.84;;;24.95;77.44
37610;BME280;23457;51.966;8.230;2023-08-24T09:30:53;100864.00;;;25.14;80.24
37610;BME280;23457;51.966;8.230;2023-08-24T09:33:24;100863.75;;;25.41;76.52
37610;BME280;23457;51.966;8.230;2023-08-24T09:35:55;100864.97;;;25.54;73.83
37610;BME280;23457;51.966;8.230;2023-08-24T09:38:27;100861.78;;;25.46;71.81
37610;BME280;23457;51.966;8.230;2023-08-24T09:40:56;100864.56;;;25.63;71.39
37610;BME280;23457;51.966;8.230;2023-08-24T09:43:23;100864.03;;;25.75;69.79
37610;BME280;23457;51.966;8.230;2023-08-24T09:45:50;100862.47;;;25.71;68.80
37610;BME280;23457;51.966;8.230;2023-08-24T09:48:18;100854.88;;;25.82;72.58
37610;BME280;23457;51.966;8.230;2023-08-24T09:50:46;100858.59;;;25.78;64.86
37610;BME280;23457;51.966;8.230;2023-08-24T09:55:49;100851.88;;;26.09;71.92
37610;BME280;23457;51.966;8.230;2023-08-24T09:58:20;100847.63;;;26.23;68.48
37610;BME280;23457;51.966;8.230;2023-08-24T10:00:49;100838.06;;;26.38;67.55
37610;BME280;23457;51.966;8.230;2023-08-24T10:03:18;100836.34;;;26.18;65.87
37610;BME280;23457;51.966;8.230;2023-08-24T10:05:51;100821.91;;;26.22;65.35
37610;BME280;23457;51.966;8.230;2023-08-24T10:08:29;100815.75;;;26.40;64.21
37610;BME280;23457;51.966;8.230;2023-08-24T10:10:56;100795.38;;;26.39;62.98
37610;BME280;23457;51.966;8.230;2023-08-24T10:15:59;100782.91;;;26.76;67.57
37610;BME280;23457;51.966;8.230;2023-08-24T10:18:26;100773.75;;;26.82;68.62
37610;BME280;23457;51.966;8.230;2023-08-24T10:20:53;100774.41;;;27.04;64.04
37610;BME280;23457;51.966;8.230;2023-08-24T10:23:20;100777.22;;;27.01;64.85
37610;BME280;23457;51.966;8.230;2023-08-24T10:25:51;100774.25;;;27.07;60.61
37610;BME280;23457;51.966;8.230;2023-08-24T10:28:20;100764.13;;;27.14;61.66
37610;BME280;23457;51.966;8.230;2023-08-24T10:30:47;100773.06;;;27.13;64.00
37610;BME280;23457;51.966;8.230;2023-08-24T10:33:15;100779.44;;;27.10;64.03
37610;BME280;23457;51.966;8.230;2023-08-24T10:35:42;100781.31;;;27.25;63.51
37610;BME280;23457;51.966;8.230;2023-08-24T10:38:25;100787.72;;;27.38;63.41
37610;BME280;23457;51.966;8.230;2023-08-24T10:40:53;100784.56;;;27.65;63.33
37610;BME280;23457;51.966;8.230;2023-08-24T10:43:22;100790.00;;;27.96;64.00
37610;BME280;23457;51.966;8.230;2023-08-24T10:46:01;100799.53;;;28.33;68.36
37610;BME280;23457;51.966;8.230;2023-08-24T10:51:19;100792.69;;;28.43;59.94
37610;BME280;23457;51.966;8.230;2023-08-24T10:53:55;100787.31;;;28.75;59.22
37610;BME280;23457;51.966;8.230;2023-08-24T10:56:30;100791.13;;;28.86;58.06
37610;BME280;23457;51.966;8.230;2023-08-24T10:59:17;100778.66;;;29.15;59.72
37610;BME280;23457;51.966;8.230;2023-08-24T11:04:20;100750.00;;;29.47;56.20
37610;BME280;23457;51.966;8.230;2023-08-24T11:07:00;100749.75;;;29.22;54.44
37610;BME280;23457;51.966;8.230;2023-08-24T11:09:45;100747.25;;;29.19;54.15
37610;BME280;23457;51.966;8.230;2023-08-24T11:12:15;100748.84;;;29.07;53.48
37610;BME280;23457;51.966;8.230;2023-08-24T11:14:51;100749.31;;;29.00;54.92
37610;BME280;23457;51.966;8.230;2023-08-24T11:17:21;100740.38;;;28.85;53.71
37610;BME280;23457;51.966;8.230;2023-08-24T11:19:52;100725.00;;;28.88;53.52
37610;BME280;23457;51.966;8.230;2023-08-24T11:22:19;100730.13;;;29.07;53.61
37610;BME280;23457;51.966;8.230;2023-08-24T11:24:46;100734.59;;;29.07;53.45
37610;BME280;23457;51.966;8.230;2023-08-24T11:27:13;100717.91;;;29.32;53.74
37610;BME280;23457;51.966;8.230;2023-08-24T11:29:40;100721.41;;;29.62;58.12
37610;BME280;23457;51.966;8.230;2023-08-24T11:32:07;100709.56;;;29.93;57.18
37610;BME280;23457;51.966;8.230;2023-08-24T11:34:34;100711.63;;;30.16;57.54
37610;BME280;23457;51.966;8.230;2023-08-24T11:37:02;100701.59;;;30.20;52.46
37610;BME280;23457;51.966;8.230;2023-08-24T11:39:29;100696.28;;;30.33;51.12
37610;BME280;23457;51.966;8.230;2023-08-24T11:42:04;100686.22;;;29.95;50.66
37610;BME280;23457;51.966;8.230;2023-08-24T11:44:48;100675.00;;;29.62;50.52
37610;BME280;23457;51.966;8.230;2023-08-24T11:47:15;100675.72;;;29.78;53.92
37610;BME280;23457;51.966;8.230;2023-08-24T11:49:42;100685.66;;;29.90;50.47
37610;BME280;23457;51.966;8.230;2023-08-24T11:52:09;100679.34;;;29.91;53.04
37610;BME280;23457;51.966;8.230;2023-08-24T11:54:36;100684.41;;;30.10;52.68
37610;BME280;23457;51.966;8.230;2023-08-24T11:57:06;100669.38;;;30.34;52.93
37610;BME280;23457;51.966;8.230;2023-08-24T11:59:38;100672.47;;;30.01;51.89
37610;BME280;23457;51.966;8.230;2023-08-24T12:02:05;100665.75;;;29.94;54.88
37610;BME280;23457;51.966;8.230;2023-08-24T12:04:42;100663.75;;;29.83;52.91
37610;BME280;23457;51.966;8.230;2023-08-24T12:07:13;100657.03;;;29.90;53.36
37610;BME280;23457;51.966;8.230;2023-08-24T12:09:40;100649.75;;;30.07;56.20
37610;BME280;23457;51.966;8.230;2023-08-24T12:12:14;100654.66;;;30.00;53.41
37610;BME280;23457;51.966;8.230;2023-08-24T12:14:42;100654.88;;;29.83;55.97
37610;BME280;23457;51.966;8.230;2023-08-24T12:17:10;100655.97;;;29.93;55.71
37610;BME280;23457;51.966;8.230;2023-08-24T12:19:36;100647.28;;;29.63;53.22
37610;BME280;23457;51.966;8.230;2023-08-24T12:22:06;100651.97;;;29.59;56.06
37610;BME280;23457;51.966;8.230;2023-08-24T12:24:33;100654.16;;;29.52;55.30
37610;BME280;23457;51.966;8.230;2023-08-24T12:27:00;100654.81;;;29.56;57.87
37610;BME280;23457;51.966;8.230;2023-08-24T12:29:29;100656.81;;;29.52;57.33
37610;BME280;23457;51.966;8.230;2023-08-24T12:31:57;100648.22;;;29.62;58.29
37610;BME280;23457;51.966;8.230;2023-08-24T12:34:24;100641.50;;;29.69;57.65
37610;BME280;23457;51.966;8.230;2023-08-24T12:36:51;100645.09;;;29.96;57.26
37610;BME280;23457;51.966;8.230;2023-08-24T12:39:20;100640.09;;;29.90;58.32
37610;BME280;23457;51.966;8.230;2023-08-24T12:41:47;100645.09;;;29.96;56.84
37610;BME280;23457;51.966;8.230;2023-08-24T12:44:13;100655.13;;;29.92;54.34
37610;BME280;23457;51.966;8.230;2023-08-24T12:46:41;100646.03;;;30.09;53.07
37610;BME280;23457;51.966;8.230;2023-08-24T12:49:08;100648.84;;;30.20;53.68
37610;BME280;23457;51.966;8.230;2023-08-24T12:51:34;100643.53;;;30.46;54.81
37610;BME280;23457;51.966;8.230;2023-08-24T12:54:01;100640.53;;;30.38;52.84
37610;BME280;23457;51.966;8.230;2023-08-24T12:56:28;100634.72;;;30.31;52.71
37610;BME280;23457;51.966;8.230;2023-08-24T12:58:54;100621.97;;;30.35;53.61
37610;BME280;23457;51.966;8.230;2023-08-24T13:01:21;100627.47;;;30.46;52.89
37610;BME280;23457;51.966;8.230;2023-08-24T13:03:48;100632.06;;;30.44;54.59